Time;durP1;ratioP1;P1;durP2;ratioP2;P2;SDS_P1;SDS_P2;PMS_P1;PMS_P2;Temp;Humidity;BMP_temperature;BMP_pressure;BME280_temperature;BME280_humidity;BME280_pressure;Samples;Min_cycle;Max_cycle;Signal;HPM_P1;HPM_P2
2022/08/06 00:02:06;;;;;;;7.80;5.40;;;;;;;23.17;98.18;98010.27;1654470;83;28130;-87
2022/08/06 00:04:32;;;;;;;5.90;5.30;;;;;;;23.18;98.35;98007.41;1649466;84;28004;-87
2022/08/06 00:06:59;;;;;;;13.80;5.60;;;;;;;23.19;98.62;98019.70;1686875;82;28267;-87
2022/08/06 00:09:30;;;;;;;7.22;5.50;;;;;;;23.19;98.92;98017.55;1713745;82;28094;-87
2022/08/06 00:11:53;;;;;;;7.28;5.30;;;;;;;23.19;99.19;98018.87;1695274;82;28101;-87
2022/08/06 00:14:19;;;;;;;7.50;5.35;;;;;;;23.19;99.53;98015.70;1647538;84;28033;-87
2022/08/06 00:16:46;;;;;;;7.28;4.85;;;;;;;23.20;99.82;98020.03;1704883;82;28126;-87
2022/08/06 00:19:12;;;;;;;5.35;4.85;;;;;;;23.20;100.00;98023.20;1663320;83;28105;-87
2022/08/06 00:21:38;;;;;;;9.40;5.72;;;;;;;23.18;100.00;98018.09;1692025;82;28095;-88
2022/08/06 00:24:04;;;;;;;9.85;5.08;;;;;;;23.20;100.00;98031.21;1669835;83;28008;-88
2022/08/06 00:26:30;;;;;;;8.95;6.35;;;;;;;23.20;100.00;98028.55;1698922;82;28089;-88
2022/08/06 00:28:56;;;;;;;7.90;5.30;;;;;;;23.20;100.00;98033.88;1707791;82;28241;-87
2022/08/06 00:31:22;;;;;;;5.75;4.87;;;;;;;23.20;100.00;98039.22;1670776;83;28216;-87
2022/08/06 00:33:49;;;;;;;5.92;4.75;;;;;;;23.21;100.00;98039.55;1693532;82;28137;-87
2022/08/06 00:36:15;;;;;;;6.10;4.87;;;;;;;23.22;100.00;98037.20;1694766;82;28109;-87
2022/08/06 00:38:41;;;;;;;5.58;4.95;;;;;;;23.22;100.00;98040.69;1701619;81;28132;-87
2022/08/06 00:41:07;;;;;;;8.15;4.70;;;;;;;23.22;100.00;98048.70;1706652;82;28114;-88
2022/08/06 00:43:33;;;;;;;6.12;4.90;;;;;;;23.21;100.00;98050.22;1700666;81;28092;-87
2022/08/06 00:45:59;;;;;;;9.55;4.87;;;;;;;23.18;100.00;98051.45;1699730;82;28160;-87
2022/08/06 00:48:26;;;;;;;7.67;4.97;;;;;;;23.20;100.00;98060.58;1708893;82;28016;-88
2022/08/06 00:50:51;;;;;;;6.65;5.25;;;;;;;23.18;100.00;98059.97;1707938;82;28132;-88
2022/08/06 00:53:18;;;;;;;6.85;4.78;;;;;;;23.17;100.00;98064.48;1697318;82;28020;-88
2022/08/06 00:55:45;;;;;;;8.35;5.22;;;;;;;23.17;100.00;98063.66;1713099;81;28146;-91
2022/08/06 00:58:13;;;;;;;5.65;5.08;;;;;;;23.15;100.00;98062.51;1717348;81;28091;-91
2022/08/06 01:00:40;;;;;;;8.18;4.67;;;;;;;23.15;100.00;98074.52;1665203;84;28165;-91
2022/08/06 01:03:16;;;;;;;5.92;4.70;;;;;;;23.15;100.00;98085.71;1687973;82;28189;-91
2022/08/06 01:05:41;;;;;;;6.00;4.97;;;;;;;23.14;100.00;98078.72;1713549;81;28295;-87
2022/08/06 01:08:07;;;;;;;7.30;4.35;;;;;;;23.10;100.00;98089.48;1703754;82;28100;-87
2022/08/06 01:10:33;;;;;;;6.47;5.00;;;;;;;23.09;100.00;98084.64;1700486;82;28094;-87
2022/08/06 01:12:59;;;;;;;8.98;4.83;;;;;;;23.07;100.00;98097.89;1716007;81;28132;-87
2022/08/06 01:15:25;;;;;;;5.90;4.45;;;;;;;23.07;100.00;98101.89;1715404;82;28048;-86
2022/08/06 01:17:57;;;;;;;10.78;5.03;;;;;;;23.06;100.00;98098.39;1702872;82;28071;-87
2022/08/06 01:20:52;;;;;;;5.58;4.72;;;;;;;23.03;100.00;98100.61;1670271;84;28030;-87
2022/08/06 01:23:31;;;;;;;6.85;4.40;;;;;;;23.00;100.00;98104.51;1648596;84;28032;-87
2022/08/06 01:26:25;;;;;;;6.45;4.30;;;;;;;23.00;100.00;98103.17;1713002;82;28222;-87
2022/08/06 01:28:58;;;;;;;4.35;3.50;;;;;;;22.97;100.00;98099.53;1703954;82;28110;-87
2022/08/06 01:31:36;;;;;;;12.80;4.33;;;;;;;22.96;100.00;98106.42;1711446;82;28011;-89
2022/08/06 01:34:12;;;;;;;8.63;4.25;;;;;;;22.93;100.00;98110.30;1697181;82;28068;-89
2022/08/06 01:36:41;;;;;;;6.08;4.17;;;;;;;22.90;100.00;98119.53;1679785;82;28169;-88
2022/08/06 01:39:11;;;;;;;5.90;4.12;;;;;;;22.91;100.00;98115.02;1698411;82;28025;-88
2022/08/06 01:41:44;;;;;;;5.90;4.20;;;;;;;22.89;100.00;98123.20;1709376;81;28119;-87
2022/08/06 01:44:13;;;;;;;6.03;3.67;;;;;;;22.90;100.00;98124.03;1697453;82;28186;-89
2022/08/06 01:46:46;;;;;;;4.42;3.70;;;;;;;22.87;100.00;98126.56;1705969;81;28092;-88
2022/08/06 01:49:15;;;;;;;5.00;4.28;;;;;;;22.85;100.00;98126.45;1698579;82;28109;-89
2022/08/06 01:51:46;;;;;;;6.62;3.70;;;;;;;22.81;100.00;98135.34;1666215;84;28137;-89
2022/08/06 01:54:14;;;;;;;3.90;3.40;;;;;;;22.79;100.00;98146.73;1641871;84;28157;-87
2022/08/06 01:56:44;;;;;;;3.95;3.55;;;;;;;22.78;100.00;98141.07;1662401;83;49954;-89
2022/08/06 01:59:12;;;;;;;4.78;3.40;;;;;;;22.78;100.00;98142.41;1649540;85;28114;-88
2022/08/06 02:01:39;;;;;;;4.92;3.58;;;;;;;22.76;100.00;98141.76;1670267;83;28092;-87
2022/08/06 02:04:07;;;;;;;4.17;3.60;;;;;;;22.76;100.00;98140.42;1667355;83;28176;-87
2022/08/06 02:06:37;;;;;;;4.45;3.45;;;;;;;22.71;100.00;98144.17;1659557;85;28068;-89
2022/08/06 02:09:06;;;;;;;7.17;3.60;;;;;;;22.68;100.00;98152.55;1672436;84;28126;-89
2022/08/06 02:11:35;;;;;;;3.92;3.42;;;;;;;22.67;100.00;98151.39;1664892;84;28145;-89
2022/08/06 02:14:02;;;;;;;4.72;3.55;;;;;;;22.69;100.00;98157.37;1663802;84;28213;-88
2022/08/06 02:16:32;;;;;;;4.42;3.50;;;;;;;22.67;100.00;98150.05;1675095;83;28119;-88
2022/08/06 02:19:00;;;;;;;8.48;3.52;;;;;;;22.67;100.00;98156.22;1659906;83;28118;-88
2022/08/06 02:21:27;;;;;;;4.08;3.20;;;;;;;22.66;100.00;98150.56;1634866;85;28117;-88
2022/08/06 02:23:56;;;;;;;6.65;3.37;;;;;;;22.66;100.00;98149.22;1677697;82;28167;-86
2022/08/06 02:26:25;;;;;;;3.52;3.12;;;;;;;22.63;100.00;98150.95;1691611;82;28031;-89
2022/08/06 02:28:53;;;;;;;3.47;2.98;;;;;;;22.63;100.00;98156.80;1649232;84;28088;-87
2022/08/06 02:31:19;;;;;;;3.50;2.90;;;;;;;22.65;100.00;98154.74;1637281;85;28031;-87
2022/08/06 02:33:46;;;;;;;4.75;2.92;;;;;;;22.67;100.00;98154.89;1673003;83;28078;-86
2022/08/06 02:36:21;;;;;;;5.55;3.15;;;;;;;22.67;100.00;98156.72;1686003;83;27999;-88
2022/08/06 02:38:50;;;;;;;3.60;3.25;;;;;;;22.65;100.00;98161.41;1661233;83;28090;-89
2022/08/06 02:41:20;;;;;;;4.42;3.40;;;;;;;22.64;100.00;98163.25;1663418;84;28107;-87
2022/08/06 02:43:56;;;;;;;6.92;3.55;;;;;;;22.66;100.00;98169.73;1638198;85;28232;-87
2022/08/06 02:46:28;;;;;;;7.55;3.65;;;;;;;22.63;100.00;98172.80;1671467;84;28627;-87
2022/08/06 02:49:04;;;;;;;4.60;3.12;;;;;;;22.61;100.00;98170.31;1696006;81;28100;-89
2022/08/06 02:51:36;;;;;;;3.55;3.25;;;;;;;22.62;100.00;98173.30;1695684;81;28155;-89
2022/08/06 02:54:09;;;;;;;3.52;2.72;;;;;;;22.60;100.00;98175.33;1715417;82;28131;-89
2022/08/06 02:56:39;;;;;;;4.72;3.22;;;;;;;22.52;100.00;98175.45;1713262;81;28119;-88
2022/08/06 02:59:07;;;;;;;5.80;3.00;;;;;;;22.52;100.00;98181.63;1702125;81;28110;-89
2022/08/06 03:04:32;;;;;;;4.05;3.05;;;;;;;22.50;100.00;98194.31;1704836;81;28118;-89
2022/08/06 03:07:01;;;;;;;4.65;3.10;;;;;;;22.46;100.00;98196.22;1695447;82;28419;-90
2022/08/06 03:09:28;;;;;;;4.75;3.15;;;;;;;22.46;100.00;98196.22;1695917;81;28020;-90
2022/08/06 03:11:57;;;;;;;6.12;2.90;;;;;;;22.45;100.00;98197.22;1692987;81;28114;-89
2022/08/06 03:14:24;;;;;;;3.60;2.83;;;;;;;22.45;100.00;98202.55;1711790;81;28108;-89
2022/08/06 03:16:53;;;;;;;4.25;2.92;;;;;;;22.43;100.00;98209.40;1689064;82;28132;-89
2022/08/06 03:19:21;;;;;;;4.17;2.75;;;;;;;22.44;100.00;98212.89;1698637;81;28069;-89
2022/08/06 03:21:48;;;;;;;3.58;3.00;;;;;;;22.41;100.00;98215.95;1699136;82;28100;-88
2022/08/06 03:24:15;;;;;;;3.25;2.90;;;;;;;22.40;100.00;98218.30;1703094;81;28106;-89
2022/08/06 03:26:42;;;;;;;5.72;2.95;;;;;;;22.38;100.00;98217.14;1691928;82;28010;-87
2022/08/06 03:29:16;;;;;;;4.45;2.95;;;;;;;22.39;100.00;98220.13;1694954;82;28135;-86
2022/08/06 03:31:43;;;;;;;5.83;3.00;;;;;;;22.39;100.00;98221.47;1698881;81;28193;-89
2022/08/06 03:34:10;;;;;;;3.25;2.90;;;;;;;22.37;100.00;98223.48;1689113;83;28117;-90
2022/08/06 03:36:37;;;;;;;6.47;3.37;;;;;;;22.36;100.00;98235.69;1691144;81;28005;-89
2022/08/06 03:39:06;;;;;;;3.75;3.00;;;;;;;22.33;100.00;98240.04;1691909;82;28018;-89
2022/08/06 03:41:35;;;;;;;4.53;2.80;;;;;;;22.30;100.00;98244.42;1701898;82;28108;-89
2022/08/06 03:44:04;;;;;;;6.25;3.25;;;;;;;22.30;100.00;98243.09;1703196;82;28070;-88
2022/08/06 03:46:43;;;;;;;5.65;3.37;;;;;;;22.31;100.00;98256.22;1698680;82;28138;-88
2022/08/06 03:49:15;;;;;;;4.85;3.17;;;;;;;22.32;100.00;98265.05;1696803;82;28067;-88
2022/08/06 03:51:49;;;;;;;3.37;2.98;;;;;;;22.29;100.00;98268.09;1676186;82;28014;-87
2022/08/06 03:54:15;;;;;;;5.47;3.00;;;;;;;22.28;100.00;98271.77;1685492;83;28109;-88
2022/08/06 03:56:46;;;;;;;5.72;2.80;;;;;;;22.27;100.00;98270.11;1690797;82;28251;-87
2022/08/06 03:59:15;;;;;;;2.62;2.42;;;;;;;22.25;100.00;98272.16;1687416;82;28089;-88
2022/08/06 04:01:43;;;;;;;3.02;2.80;;;;;;;22.23;100.00;98274.16;1664900;84;28027;-87
2022/08/06 04:04:10;;;;;;;5.78;3.12;;;;;;;22.23;100.00;98284.83;1685244;83;28105;-88
2022/08/06 04:06:37;;;;;;;3.65;3.08;;;;;;;22.21;100.00;98290.84;1691539;82;28029;-87
2022/08/06 04:09:05;;;;;;;5.65;3.05;;;;;;;22.22;100.00;98288.50;1689335;83;28070;-86
2022/08/06 04:11:37;;;;;;;3.42;2.85;;;;;;;22.20;100.00;98287.38;1688037;82;28114;-87
2022/08/06 04:14:01;;;;;;;5.03;2.90;;;;;;;22.19;100.00;98291.55;1700996;82;28236;-88
2022/08/06 04:16:28;;;;;;;4.17;2.87;;;;;;;22.21;100.00;98301.00;1703341;81;28120;-90
2022/08/06 04:18:56;;;;;;;5.22;2.75;;;;;;;22.22;100.00;98304.50;1690661;82;28085;-88
2022/08/06 04:21:25;;;;;;;3.47;2.80;;;;;;;22.25;100.00;98310.31;1696920;82;28088;-88
2022/08/06 04:23:57;;;;;;;3.58;3.20;;;;;;;22.26;100.00;98310.61;1703018;81;28111;-87
2022/08/06 04:26:27;;;;;;;4.25;2.80;;;;;;;22.30;100.00;98317.25;1689538;81;28167;-87
2022/08/06 04:29:01;;;;;;;4.17;2.98;;;;;;;22.32;100.00;98318.38;1691668;81;28140;-89
2022/08/06 04:31:30;;;;;;;3.27;2.98;;;;;;;22.35;100.00;98320.69;1689241;82;28222;-89
2022/08/06 04:33:58;;;;;;;4.33;3.52;;;;;;;22.36;100.00;98331.69;1691528;81;28263;-88
2022/08/06 04:36:28;;;;;;;3.22;2.92;;;;;;;22.37;100.00;98342.14;1701011;82;28061;-88
2022/08/06 04:38:56;;;;;;;3.35;2.98;;;;;;;22.38;100.00;98349.64;1696492;82;28237;-88
2022/08/06 04:41:23;;;;;;;4.95;3.20;;;;;;;22.42;100.00;98354.42;1703896;83;28529;-88
2022/08/06 04:43:49;;;;;;;3.30;3.00;;;;;;;22.49;100.00;98358.52;1698500;82;28022;-88
2022/08/06 04:46:17;;;;;;;4.97;3.65;;;;;;;22.54;100.00;98361.45;1695845;82;28180;-90
2022/08/06 04:48:43;;;;;;;3.72;2.90;;;;;;;22.58;100.00;98369.44;1691784;81;28177;-89
2022/08/06 04:51:11;;;;;;;5.30;3.15;;;;;;;22.59;100.00;98375.06;1698894;83;28076;-88
2022/08/06 04:53:39;;;;;;;7.30;3.02;;;;;;;22.59;100.00;98385.73;1698794;82;28076;-89
2022/08/06 04:56:08;;;;;;;4.28;3.50;;;;;;;22.59;100.00;98387.07;1669502;83;28095;-90
2022/08/06 04:58:35;;;;;;;5.95;3.55;;;;;;;22.60;100.00;98391.40;1689485;83;28158;-88
2022/08/06 05:01:02;;;;;;;4.50;3.15;;;;;;;22.62;100.00;98403.23;1698799;83;28090;-87
2022/08/06 05:03:31;;;;;;;3.67;3.27;;;;;;;22.61;100.00;98411.73;1680609;82;28142;-87
2022/08/06 05:06:15;;;;;;;10.40;4.20;;;;;;;22.62;100.00;98415.23;1688429;82;28335;-87
2022/08/06 05:08:43;;;;;;;4.70;3.10;;;;;;;22.62;100.00;98421.91;1688586;81;28050;-87
2022/08/06 05:11:34;;;;;;;6.85;3.98;;;;;;;22.61;100.00;98418.41;1672135;82;28256;-89
2022/08/06 05:14:07;;;;;;;6.40;3.67;;;;;;;22.60;100.00;98422.58;1693629;82;28128;-87
2022/08/06 05:16:34;;;;;;;6.47;4.10;;;;;;;22.58;100.00;98426.79;1688328;82;28051;-87
2022/08/06 05:19:03;;;;;;;5.75;4.00;;;;;;;22.59;100.00;98435.09;1692590;81;28102;-89
2022/08/06 05:21:33;;;;;;;7.87;4.35;;;;;;;22.61;100.00;98438.41;1703226;81;28126;-87
2022/08/06 05:24:00;;;;;;;6.65;4.55;;;;;;;22.63;100.00;98438.23;1701599;81;28040;-88
2022/08/06 05:26:27;;;;;;;6.85;4.40;;;;;;;22.65;100.00;98437.02;1687843;83;28114;-87
2022/08/06 05:28:53;;;;;;;4.20;3.83;;;;;;;22.68;100.00;98437.18;1699925;82;28215;-88
2022/08/06 05:31:35;;;;;;;7.10;3.67;;;;;;;22.68;100.00;98444.68;1671959;82;28087;-88
2022/08/06 05:34:02;;;;;;;5.47;3.70;;;;;;;22.65;100.00;98446.36;1664207;83;28170;-90
2022/08/06 05:36:28;;;;;;;6.67;4.30;;;;;;;22.67;100.00;98439.52;1675421;83;28161;-87
2022/08/06 05:38:54;;;;;;;4.83;3.35;;;;;;;22.70;100.00;98443.97;1664501;83;28213;-87
2022/08/06 05:41:20;;;;;;;4.97;3.70;;;;;;;22.74;100.00;98440.48;1665696;83;28052;-88
2022/08/06 05:43:49;;;;;;;6.28;3.65;;;;;;;22.76;100.00;98455.78;1665395;83;28034;-89
2022/08/06 05:46:18;;;;;;;7.72;3.37;;;;;;;22.77;100.00;98451.61;1647573;85;28174;-87
2022/08/06 05:48:51;;;;;;;5.67;3.75;;;;;;;22.81;100.00;98460.89;1650874;84;28057;-86
2022/08/06 05:51:21;;;;;;;6.30;4.37;;;;;;;22.83;100.00;98464.22;1648975;84;28085;-89
2022/08/06 05:53:50;;;;;;;4.78;3.33;;;;;;;22.86;100.00;98467.01;1642198;85;28258;-87
2022/08/06 05:56:20;;;;;;;4.35;3.80;;;;;;;22.88;100.00;98471.16;1671238;82;28077;-87
2022/08/06 05:58:59;;;;;;;5.72;3.62;;;;;;;22.93;100.00;98474.11;1698434;82;28223;-87
2022/08/06 06:01:26;;;;;;;5.78;3.75;;;;;;;22.93;100.00;98478.61;1670967;83;28186;-87
2022/08/06 06:03:55;;;;;;;4.95;3.50;;;;;;;22.87;100.00;98486.02;1688362;83;28162;-88
2022/08/06 06:06:22;;;;;;;6.67;4.00;;;;;;;22.86;100.00;98486.52;1701380;81;28162;-88
2022/08/06 06:08:48;;;;;;;4.67;3.80;;;;;;;22.74;100.00;98486.67;1689448;82;28057;-87
2022/08/06 06:11:19;;;;;;;6.05;3.85;;;;;;;22.67;100.00;98495.05;1665023;83;35144;-86
2022/08/06 06:13:46;;;;;;;4.08;3.67;;;;;;;22.66;100.00;98497.38;1692708;81;28126;-89
2022/08/06 06:16:12;;;;;;;4.15;3.30;;;;;;;22.65;100.00;98505.06;1675659;83;28087;-86
2022/08/06 06:18:51;;;;;;;6.70;3.80;;;;;;;22.60;100.00;98501.28;1688008;81;28124;-88
2022/08/06 06:21:21;;;;;;;17.65;3.47;;;;;;;22.59;100.00;98510.28;1679078;83;28065;-87
2022/08/06 06:23:57;;;;;;;3.87;3.25;;;;;;;22.57;100.00;98505.66;1693894;82;28098;-89
2022/08/06 06:26:44;;;;;;;5.87;3.10;;;;;;;22.55;100.00;98513.83;1708712;81;28034;-89
2022/08/06 06:29:39;;;;;;;3.42;3.12;;;;;;;22.50;100.00;98521.55;1691165;81;28165;-87
2022/08/06 06:32:17;;;;;;;3.90;2.80;;;;;;;22.42;100.00;98522.97;1699933;81;28145;-87
2022/08/06 06:34:56;;;;;;;3.58;3.10;;;;;;;22.35;100.00;98526.85;1703739;82;28330;-88
2022/08/06 06:37:41;;;;;;;3.52;2.77;;;;;;;22.33;100.00;98531.52;1699948;81;28150;-87
2022/08/06 06:40:16;;;;;;;3.60;3.00;;;;;;;22.26;100.00;98533.73;1693642;82;28151;-86
2022/08/06 06:43:04;;;;;;;3.42;3.12;;;;;;;22.23;100.00;98531.44;1698136;81;28084;-86
2022/08/06 06:45:36;;;;;;;3.37;2.85;;;;;;;22.20;100.00;98540.64;1617786;86;28087;-87
2022/08/06 06:48:18;;;;;;;3.65;2.20;;;;;;;22.20;100.00;98538.48;1669485;82;28174;-87
2022/08/06 06:50:45;;;;;;;;;;;;;;;22.14;100.00;98541.35;1699526;82;28135;-86
2022/08/06 06:53:16;;;;;;;2.55;2.15;;;;;;;22.06;100.00;98540.89;1705106;81;25085;-87
2022/08/06 06:55:47;;;;;;;2.00;1.80;;;;;;;22.02;100.00;98545.42;1701037;81;28020;-89
2022/08/06 06:58:23;;;;;;;4.45;2.35;;;;;;;22.05;100.00;98548.55;1695619;82;28098;-86
2022/08/06 07:00:51;;;;;;;3.35;2.08;;;;;;;22.13;100.00;98556.18;1658046;84;27998;-85
2022/08/06 07:03:19;;;;;;;2.60;2.00;;;;;;;22.20;100.00;98558.47;1699307;82;28060;-86
2022/08/06 07:05:48;;;;;;;2.50;1.40;;;;;;;22.24;100.00;98566.44;1693019;81;28135;-87
2022/08/06 07:08:20;;;;;;;1.20;0.80;;;;;;;22.26;100.00;98583.06;1700190;82;28189;-87
2022/08/06 07:10:48;;;;;;;1.10;0.50;;;;;;;22.17;100.00;98590.30;1686209;81;28100;-87
2022/08/06 07:13:20;;;;;;;1.05;0.62;;;;;;;22.08;100.00;98603.36;1693440;82;28128;-87
2022/08/06 07:15:48;;;;;;;0.60;0.42;;;;;;;21.99;100.00;98603.06;1694839;83;28241;-85
2022/08/06 07:18:16;;;;;;;1.07;0.47;;;;;;;21.86;100.00;98604.95;1705474;81;28136;-85
2022/08/06 07:20:46;;;;;;;1.47;0.35;;;;;;;21.70;100.00;98618.35;1708074;82;28025;-87
2022/08/06 07:23:15;;;;;;;0.53;0.30;;;;;;;21.62;100.00;98630.35;1697635;82;28154;-86
2022/08/06 07:25:45;;;;;;;0.80;0.47;;;;;;;21.57;100.00;98638.03;1616081;86;28100;-85
2022/08/06 07:28:14;;;;;;;0.82;0.42;;;;;;;21.41;100.00;98642.08;1664531;84;28150;-86
2022/08/06 07:30:42;;;;;;;1.65;0.50;;;;;;;21.27;100.00;98644.42;1664999;83;28209;-85
2022/08/06 07:33:10;;;;;;;4.37;0.60;;;;;;;21.21;100.00;98645.63;1677640;83;28172;-84
2022/08/06 07:35:41;;;;;;;1.95;0.57;;;;;;;21.09;100.00;98647.77;1653796;84;28211;-85
2022/08/06 07:38:12;;;;;;;1.15;0.80;;;;;;;20.92;100.00;98655.92;1655339;83;28194;-85
2022/08/06 07:40:43;;;;;;;1.22;0.45;;;;;;;20.75;100.00;98654.59;1642475;84;28146;-86
2022/08/06 07:43:19;;;;;;;0.70;0.30;;;;;;;20.61;100.00;98651.77;1660120;83;28111;-87
2022/08/06 07:45:48;;;;;;;2.05;0.60;;;;;;;20.45;100.00;98645.45;1639721;84;28204;-87
2022/08/06 07:48:17;;;;;;;0.40;0.33;;;;;;;20.30;100.00;98648.84;1655647;84;27995;-87
2022/08/06 07:50:54;;;;;;;0.78;0.60;;;;;;;20.11;100.00;98656.62;1699992;81;28111;-88
2022/08/06 07:53:25;;;;;;;2.80;0.30;;;;;;;20.04;100.00;98655.60;1684525;81;28520;-86
2022/08/06 07:55:53;;;;;;;3.12;0.55;;;;;;;20.00;100.00;98664.89;1686990;82;28228;-86
2022/08/06 07:58:20;;;;;;;3.98;0.60;;;;;;;19.96;100.00;98672.37;1704157;82;28124;-86
2022/08/06 08:00:53;;;;;;;3.67;0.78;;;;;;;19.93;100.00;98678.48;1694070;82;28082;-87
2022/08/06 08:06:23;;;;;;;1.98;0.68;;;;;;;19.90;100.00;98698.23;1681084;82;28088;-86
2022/08/06 08:08:55;;;;;;;2.55;0.95;;;;;;;19.94;100.00;98699.58;1689676;81;28208;-87
2022/08/06 08:11:24;;;;;;;2.65;0.68;;;;;;;19.95;100.00;98709.22;1696263;82;28100;-87
2022/08/06 08:13:52;;;;;;;3.92;0.70;;;;;;;19.95;100.00;98715.02;1705894;82;28157;-86
2022/08/06 08:16:19;;;;;;;1.05;0.30;;;;;;;19.89;100.00;98720.48;1697997;81;28216;-87
2022/08/06 08:18:45;;;;;;;0.30;0.30;;;;;;;19.80;100.00;98717.42;1685249;82;28124;-86
2022/08/06 08:21:13;;;;;;;1.32;0.30;;;;;;;19.68;100.00;98727.17;1675822;83;28174;-87
2022/08/06 08:23:41;;;;;;;2.95;1.00;;;;;;;19.59;100.00;98720.47;1689656;82;28103;-87
2022/08/06 08:26:08;;;;;;;0.85;0.50;;;;;;;19.52;100.00;98719.45;1687287;82;28106;-87
2022/08/06 08:28:34;;;;;;;2.50;0.50;;;;;;;19.46;100.00;98717.91;1690533;82;28144;-87
2022/08/06 08:31:05;;;;;;;0.98;0.30;;;;;;;19.45;100.00;98722.88;1715981;81;28210;-87
2022/08/06 08:33:33;;;;;;;4.92;0.53;;;;;;;19.47;100.00;98725.72;1690662;81;28120;-87
2022/08/06 08:36:00;;;;;;;0.55;0.30;;;;;;;19.50;100.00;98727.22;1701949;82;28068;-87
2022/08/06 08:38:29;;;;;;;1.75;0.28;;;;;;;19.51;100.00;98733.70;1703019;81;28648;-87
2022/08/06 08:40:55;;;;;;;0.40;0.40;;;;;;;19.47;100.00;98740.33;1705278;81;28012;-88
2022/08/06 08:43:27;;;;;;;2.10;0.40;;;;;;;19.44;100.00;98739.75;1685223;81;41836;-88
2022/08/06 08:45:55;;;;;;;2.10;0.20;;;;;;;19.40;100.00;98743.22;1701102;82;28122;-87
2022/08/06 08:48:27;;;;;;;3.02;0.45;;;;;;;19.37;100.00;98747.50;1696855;81;28006;-88
2022/08/06 08:50:54;;;;;;;1.07;0.63;;;;;;;19.36;100.00;98741.03;1695665;83;28167;-88
2022/08/06 08:53:26;;;;;;;0.85;0.40;;;;;;;19.44;100.00;98753.02;1695724;82;28169;-87
2022/08/06 08:55:53;;;;;;;0.78;0.30;;;;;;;19.45;100.00;98754.73;1698106;81;28097;-88
2022/08/06 08:58:19;;;;;;;0.60;0.40;;;;;;;19.44;100.00;98757.84;1700612;82;28214;-88
2022/08/06 09:00:45;;;;;;;0.65;0.20;;;;;;;19.45;100.00;98756.05;1675832;83;28278;-88
2022/08/06 09:03:14;;;;;;;0.65;0.23;;;;;;;19.44;100.00;98756.52;1694684;81;28138;-88
2022/08/06 09:05:41;;;;;;;1.40;0.50;;;;;;;19.44;100.00;98759.17;1691772;83;28118;-89
2022/08/06 09:08:10;;;;;;;2.65;0.70;;;;;;;19.42;100.00;98765.64;1706481;82;28171;-87
2022/08/06 09:10:37;;;;;;;0.72;0.57;;;;;;;19.32;100.00;98760.40;1665950;83;28059;-90
2022/08/06 09:13:04;;;;;;;0.55;0.37;;;;;;;19.28;100.00;98764.36;1650024;83;28252;-87
2022/08/06 09:15:30;;;;;;;3.05;0.50;;;;;;;19.25;100.00;98763.35;1660578;83;28124;-87
2022/08/06 09:17:56;;;;;;;3.62;0.47;;;;;;;19.25;100.00;98764.67;1690544;81;28063;-90
2022/08/06 09:20:23;;;;;;;0.98;0.50;;;;;;;19.24;100.00;98768.31;1688690;82;28000;-90
2022/08/06 09:22:50;;;;;;;0.55;0.40;;;;;;;19.19;100.00;98766.13;1678663;83;28204;-90
2022/08/06 09:25:37;;;;;;;1.17;0.78;;;;;;;19.13;100.00;98766.73;1702789;82;28060;-90
2022/08/06 09:28:16;;;;;;;2.65;0.40;;;;;;;19.11;100.00;98781.13;1690866;82;28120;-90
2022/08/06 09:30:47;;;;;;;1.62;0.60;;;;;;;19.08;100.00;98790.73;1685438;82;28108;-89
2022/08/06 09:33:17;;;;;;;0.80;0.60;;;;;;;19.03;100.00;98791.67;1664527;83;28104;-89
2022/08/06 09:35:50;;;;;;;0.78;0.68;;;;;;;18.97;100.00;98789.63;1673375;83;28089;-90
2022/08/06 09:38:16;;;;;;;2.02;0.60;;;;;;;18.92;100.00;98792.73;1694862;82;28072;-90
2022/08/06 09:41:07;;;;;;;1.50;0.70;;;;;;;18.94;100.00;98795.21;1685934;81;28246;-89
2022/08/06 09:43:37;;;;;;;1.35;0.80;;;;;;;18.94;100.00;98792.56;1679079;83;28166;-89
2022/08/06 09:46:07;;;;;;;0.85;0.70;;;;;;;18.94;100.00;98800.52;1675161;83;28226;-89
2022/08/06 09:48:36;;;;;;;1.95;0.70;;;;;;;18.91;100.00;98806.14;1698319;81;28276;-89
2022/08/06 09:51:03;;;;;;;0.70;0.70;;;;;;;18.90;100.00;98811.09;1693702;81;28080;-88
2022/08/06 09:53:29;;;;;;;5.95;1.00;;;;;;;18.87;100.00;98818.04;1695025;82;28085;-88
2022/08/06 09:55:57;;;;;;;0.60;0.60;;;;;;;18.83;100.00;98817.97;1701171;81;28102;-89
2022/08/06 09:58:36;;;;;;;2.05;0.90;;;;;;;18.82;100.00;98821.64;1702616;82;28179;-89
2022/08/06 10:01:14;;;;;;;3.45;1.05;;;;;;;18.79;100.00;98817.45;1682049;82;28124;-88
2022/08/06 10:03:41;;;;;;;0.98;0.90;;;;;;;18.74;100.00;98821.05;1701539;81;28163;-88
2022/08/06 10:06:13;;;;;;;2.05;1.05;;;;;;;18.68;100.00;98819.82;1709153;81;28139;-89
2022/08/06 10:08:40;;;;;;;2.95;1.20;;;;;;;18.63;100.00;98822.08;1686091;81;28231;-89
2022/08/06 10:11:07;;;;;;;1.12;1.02;;;;;;;18.61;100.00;98827.17;1702750;82;28097;-89
2022/08/06 10:13:34;;;;;;;2.50;1.32;;;;;;;18.61;100.00;98830.66;1704173;81;28107;-87
2022/08/06 10:16:04;;;;;;;1.65;1.20;;;;;;;18.62;100.00;98826.20;1688206;83;28278;-87
2022/08/06 10:18:32;;;;;;;1.45;1.27;;;;;;;18.64;100.00;98834.85;1683885;82;28057;-87
2022/08/06 10:21:01;;;;;;;2.37;1.15;;;;;;;18.64;100.00;98836.17;1685817;82;28109;-89
2022/08/06 10:23:31;;;;;;;3.55;1.47;;;;;;;18.57;100.00;98834.60;1683001;82;28262;-89
2022/08/06 10:25:57;;;;;;;2.20;1.30;;;;;;;18.52;100.00;98838.16;1709108;82;28087;-89
2022/08/06 10:28:26;;;;;;;1.52;1.42;;;;;;;18.45;100.00;98841.04;1693663;82;28097;-90
2022/08/06 10:30:54;;;;;;;1.80;1.47;;;;;;;18.44;100.00;98849.97;1697802;81;28064;-90
2022/08/06 10:33:27;;;;;;;1.60;1.50;;;;;;;18.46;100.00;98838.73;1685505;82;28108;-88
2022/08/06 10:35:58;;;;;;;4.22;2.72;;;;;;;18.46;100.00;98834.77;1669803;83;28080;-89
2022/08/06 10:38:28;;;;;;;2.12;1.60;;;;;;;18.45;100.00;98838.88;1702143;81;28047;-90
2022/08/06 10:40:56;;;;;;;1.82;1.72;;;;;;;18.45;100.00;98837.06;1693722;81;28141;-90
2022/08/06 10:43:24;;;;;;;2.85;1.85;;;;;;;18.36;100.00;98844.58;1695805;81;28096;-90
2022/08/06 10:45:51;;;;;;;1.90;1.80;;;;;;;18.32;100.00;98849.83;1702722;82;28135;-90
2022/08/06 10:48:20;;;;;;;2.22;2.02;;;;;;;18.29;100.00;98854.08;1692104;82;28191;-88
2022/08/06 10:50:51;;;;;;;1.82;1.70;;;;;;;18.26;100.00;98859.69;1687665;83;28250;-90
2022/08/06 10:53:22;;;;;;;1.85;1.65;;;;;;;18.29;100.00;98862.03;1683259;83;28104;-89
2022/08/06 10:55:48;;;;;;;2.22;2.02;;;;;;;18.31;100.00;98870.68;1696301;82;28263;-90
2022/08/06 10:58:16;;;;;;;2.58;1.75;;;;;;;18.28;100.00;98862.52;1686344;83;28095;-90
2022/08/06 11:00:42;;;;;;;5.00;1.98;;;;;;;18.27;100.00;98864.81;1689795;82;28120;-88
2022/08/06 11:03:19;;;;;;;3.67;2.17;;;;;;;18.26;100.00;98860.52;1683717;81;28134;-90
2022/08/06 11:05:46;;;;;;;2.27;2.08;;;;;;;18.29;100.00;98856.73;1689283;82;28148;-88
2022/08/06 11:08:25;;;;;;;3.52;2.33;;;;;;;18.31;100.00;98861.41;1695503;82;28084;-90
2022/08/06 11:11:16;;;;;;;3.95;2.25;;;;;;;18.28;100.00;98864.33;1675945;82;28074;-89
2022/08/06 11:13:56;;;;;;;2.37;2.20;;;;;;;18.33;100.00;98865.56;1706917;82;28009;-91
2022/08/06 11:16:24;;;;;;;2.92;2.62;;;;;;;18.30;100.00;98867.68;1700024;82;28123;-89
2022/08/06 11:19:02;;;;;;;3.02;2.45;;;;;;;18.29;100.00;98864.19;1656667;83;28124;-88
2022/08/06 11:21:41;;;;;;;3.87;2.42;;;;;;;18.31;100.00;98870.68;1661888;84;28036;-91
2022/08/06 11:24:08;;;;;;;4.53;2.60;;;;;;;18.32;100.00;98874.52;1689540;82;28100;-88
2022/08/06 11:26:47;;;;;;;3.52;2.90;;;;;;;18.37;100.00;98872.75;1689499;82;28140;-89
2022/08/06 11:29:15;;;;;;;3.30;3.00;;;;;;;18.39;100.00;98871.61;1700011;81;28246;-89
2022/08/06 11:31:46;;;;;;;4.10;2.90;;;;;;;18.38;100.00;98865.96;1703343;82;28187;-90
2022/08/06 11:34:14;;;;;;;3.20;2.57;;;;;;;18.45;100.00;98872.01;1701689;82;28146;-89
2022/08/06 11:36:46;;;;;;;3.72;2.60;;;;;;;18.49;100.00;98872.08;1693842;81;28102;-88
2022/08/06 11:39:13;;;;;;;2.90;2.58;;;;;;;18.49;100.00;98882.20;1693801;82;28089;-89
2022/08/06 11:41:49;;;;;;;3.87;2.90;;;;;;;18.46;100.00;98874.52;1699811;81;28170;-88
2022/08/06 11:44:20;;;;;;;3.25;2.95;;;;;;;18.47;100.00;98866.92;1697079;83;28239;-91
2022/08/06 11:46:49;;;;;;;4.05;3.08;;;;;;;18.45;100.00;98872.01;1635337;85;28110;-89